createdAt,value
2022-09-21T00:01:46.907Z,101631.81
2022-09-21T00:04:16.165Z,101645.28
2022-09-21T00:06:44.782Z,101647.31
2022-09-21T00:09:13.898Z,101640.72
2022-09-21T00:11:43.126Z,101643.59
2022-09-21T00:14:14.867Z,101643.75
2022-09-21T00:16:44.852Z,101637.81
2022-09-21T00:19:17.347Z,101637.22
2022-09-21T00:21:45.873Z,101636.13
2022-09-21T00:24:14.100Z,101633.66
2022-09-21T00:26:42.867Z,101634.88
2022-09-21T00:29:13.039Z,101632.38
2022-09-21T00:31:41.497Z,101635.22
2022-09-21T00:34:09.864Z,101629.47
2022-09-21T00:36:40.300Z,101632.31
2022-09-21T00:39:09.084Z,101642.34
2022-09-21T00:41:37.397Z,101640.03
2022-09-21T00:44:26.609Z,101637.38
2022-09-21T00:46:58.135Z,101635.09
2022-09-21T00:49:29.353Z,101636.94
2022-09-21T00:52:05.110Z,101646.13
2022-09-21T00:54:39.596Z,101645.47
2022-09-21T00:57:09.298Z,101638.91
2022-09-21T00:59:40.399Z,101632.94
2022-09-21T01:02:08.813Z,101636.97
2022-09-21T01:04:38.029Z,101639.63
2022-09-21T01:07:12.785Z,101637.84
2022-09-21T01:09:43.470Z,101635.75
2022-09-21T01:12:27.952Z,101641.06
2022-09-21T01:15:11.929Z,101632.44
2022-09-21T01:17:48.198Z,101638.13
2022-09-21T01:20:41.856Z,101643.81
2022-09-21T01:23:36.425Z,101642.34
2022-09-21T01:26:17.580Z,101639.06
2022-09-21T01:29:14.071Z,101637.63
2022-09-21T01:31:49.191Z,101626.47
2022-09-21T01:34:25.801Z,101633.69
2022-09-21T01:36:56.858Z,101642.22
2022-09-21T01:39:27.796Z,101632.97
2022-09-21T01:41:58.151Z,101634.19
2022-09-21T01:44:33.569Z,101634.19
2022-09-21T01:47:03.000Z,101625.19
2022-09-21T01:49:36.664Z,101639.47
2022-09-21T01:52:14.080Z,101637.19
2022-09-21T01:54:48.707Z,101634.06
2022-09-21T01:57:26.191Z,101630.78
2022-09-21T01:59:59.082Z,101638.09
2022-09-21T02:02:36.951Z,101635.63
2022-09-21T02:05:07.904Z,101636.38
2022-09-21T02:07:39.357Z,101638.03
2022-09-21T02:10:13.096Z,101641.69
2022-09-21T02:12:42.909Z,101642.03
2022-09-21T02:15:13.532Z,101643.69
2022-09-21T02:17:49.859Z,101641.22
2022-09-21T02:20:24.946Z,101641.41
2022-09-21T02:23:04.710Z,101642.41
2022-09-21T02:25:43.629Z,101635.44
2022-09-21T02:28:24.102Z,101645.22
2022-09-21T02:31:01.115Z,101635.00
2022-09-21T02:33:36.680Z,101644.78
2022-09-21T02:36:11.128Z,101640.47
2022-09-21T02:38:43.578Z,101646.97
2022-09-21T02:41:18.901Z,101645.34
2022-09-21T02:43:52.811Z,101640.19
2022-09-21T02:46:29.144Z,101642.22
2022-09-21T02:49:02.255Z,101634.44
2022-09-21T02:51:34.466Z,101628.69
2022-09-21T02:54:07.312Z,101620.81
2022-09-21T02:56:37.456Z,101638.00
2022-09-21T02:59:08.693Z,101640.84
2022-09-21T03:01:41.953Z,101633.91
2022-09-21T03:04:11.141Z,101628.97
2022-09-21T03:06:39.831Z,101629.50
2022-09-21T03:09:08.470Z,101629.50
2022-09-21T03:11:38.609Z,101632.53
2022-09-21T03:14:08.947Z,101634.53
2022-09-21T03:16:39.715Z,101631.88
2022-09-21T03:19:08.487Z,101631.41
2022-09-21T03:21:39.217Z,101628.94
2022-09-21T03:24:10.863Z,101629.97
2022-09-21T03:26:39.597Z,101632.97
2022-09-21T03:29:08.650Z,101646.22
2022-09-21T03:31:38.919Z,101639.28
2022-09-21T03:34:07.718Z,101641.28
2022-09-21T03:36:35.820Z,101634.31
2022-09-21T03:39:04.728Z,101648.56
2022-09-21T03:41:33.441Z,101652.25
2022-09-21T03:44:01.566Z,101655.09
2022-09-21T03:46:30.346Z,101647.28
2022-09-21T03:49:00.046Z,101654.25
2022-09-21T03:51:28.359Z,101651.78
2022-09-21T03:53:57.625Z,101649.31
2022-09-21T03:56:26.758Z,101648.50
2022-09-21T03:58:54.887Z,101651.31
2022-09-21T04:01:23.985Z,101650.50
2022-09-21T04:03:52.869Z,101649.84
2022-09-21T04:06:22.709Z,101650.03
2022-09-21T04:08:53.984Z,101652.03
2022-09-21T04:11:23.634Z,101649.38
2022-09-21T04:13:57.504Z,101634.47
2022-09-21T04:16:26.863Z,101641.63
2022-09-21T04:18:55.555Z,101643.44
2022-09-21T04:21:25.745Z,101642.63
2022-09-21T04:23:54.627Z,101645.28
2022-09-21T04:26:25.351Z,101645.47
2022-09-21T04:28:55.725Z,101639.50
2022-09-21T04:31:24.523Z,101642.16
2022-09-21T04:33:54.399Z,101642.34
2022-09-21T04:36:25.833Z,101645.81
2022-09-21T04:38:53.854Z,101644.16
2022-09-21T04:41:22.264Z,101647.00
2022-09-21T04:43:50.946Z,101644.50
2022-09-21T04:46:25.489Z,101649.66
2022-09-21T04:48:53.931Z,101646.53
2022-09-21T04:51:21.835Z,101644.88
2022-09-21T04:53:51.344Z,101645.03
2022-09-21T04:56:19.817Z,101643.41
2022-09-21T04:58:47.782Z,101649.91
2022-09-21T05:01:16.302Z,101645.75
2022-09-21T05:03:44.222Z,101649.41
2022-09-21T05:06:13.556Z,101647.78
2022-09-21T05:09:00.127Z,101641.66
2022-09-21T05:11:29.485Z,101647.94
2022-09-21T05:13:57.860Z,101647.50
2022-09-21T05:16:25.734Z,101651.13
2022-09-21T05:18:55.405Z,101652.94
2022-09-21T05:21:24.079Z,101647.84
2022-09-21T05:23:52.084Z,101647.84
2022-09-21T05:26:20.083Z,101648.03
2022-09-21T05:28:50.704Z,101645.53
2022-09-21T05:31:32.095Z,101652.50
2022-09-21T05:34:06.709Z,101649.19
2022-09-21T05:36:46.841Z,101661.41
2022-09-21T05:39:15.867Z,101664.44
2022-09-21T05:41:44.441Z,101666.41
2022-09-21T05:44:16.772Z,101667.28
2022-09-21T05:46:56.074Z,101664.78
2022-09-21T05:49:35.276Z,101670.06
2022-09-21T05:52:11.010Z,101669.25
2022-09-21T05:54:51.693Z,101673.53
2022-09-21T05:57:35.298Z,101669.25
2022-09-21T06:00:16.250Z,101677.19
2022-09-21T06:03:07.306Z,101676.19
2022-09-21T06:05:35.947Z,101684.31
2022-09-21T06:08:04.174Z,101685.13
2022-09-21T06:10:36.904Z,101684.81
2022-09-21T06:13:05.325Z,101678.69
2022-09-21T06:15:38.936Z,101681.97
2022-09-21T06:18:07.444Z,101690.53
2022-09-21T06:20:36.319Z,101686.91
2022-09-21T06:23:05.379Z,101683.28
2022-09-21T06:25:33.972Z,101687.38
2022-09-21T06:28:06.221Z,101696.63
2022-09-21T06:30:36.389Z,101689.34
2022-09-21T06:33:06.746Z,101687.31
2022-09-21T06:35:37.211Z,101685.97
2022-09-21T06:38:08.869Z,101687.28
2022-09-21T06:40:38.803Z,101695.66
2022-09-21T06:43:07.715Z,101682.91
2022-09-21T06:45:38.321Z,101689.13
2022-09-21T06:48:06.934Z,101684.78
2022-09-21T06:50:39.091Z,101681.03
2022-09-21T06:53:07.920Z,101677.66
2022-09-21T06:55:36.732Z,101684.69
2022-09-21T06:58:06.097Z,101684.44
2022-09-21T07:00:37.171Z,101678.44
2022-09-21T07:03:05.845Z,101681.19
2022-09-21T07:05:34.141Z,101687.22
2022-09-21T07:08:03.908Z,101687.16
2022-09-21T07:10:32.462Z,101691.53
2022-09-21T07:13:05.341Z,101693.25
2022-09-21T07:15:34.355Z,101691.53
2022-09-21T07:18:12.319Z,101684.13
2022-09-21T07:20:41.240Z,101686.63
2022-09-21T07:23:15.386Z,101689.66
2022-09-21T07:25:44.278Z,101698.31
2022-09-21T07:28:12.944Z,101696.19
2022-09-21T07:30:42.630Z,101690.41
2022-09-21T07:33:12.598Z,101695.81
2022-09-21T07:35:41.829Z,101683.69
2022-09-21T07:38:10.326Z,101672.25
2022-09-21T07:40:38.652Z,101691.31
2022-09-21T07:43:08.497Z,101682.59
2022-09-21T07:45:36.803Z,101688.03
2022-09-21T07:48:05.956Z,101679.28
2022-09-21T07:50:35.696Z,101692.31
2022-09-21T07:53:05.389Z,101705.88
2022-09-21T07:55:33.596Z,101699.19
2022-09-21T07:58:19.992Z,101704.34
2022-09-21T08:00:47.826Z,101693.94
2022-09-21T08:03:15.709Z,101698.28
2022-09-21T08:05:45.065Z,101705.53
2022-09-21T08:08:13.053Z,101697.78
2022-09-21T08:10:41.021Z,101692.06
2022-09-21T08:13:08.734Z,101691.50
2022-09-21T08:15:49.204Z,101691.09
2022-09-21T08:18:17.770Z,101693.78
2022-09-21T08:20:55.234Z,101687.22
2022-09-21T08:23:23.065Z,101684.75
2022-09-21T08:25:51.136Z,101693.97
2022-09-21T08:28:19.165Z,101700.38
2022-09-21T08:30:46.938Z,101695.88
2022-09-21T08:33:14.942Z,101688.44
2022-09-21T08:35:43.807Z,101693.34
2022-09-21T08:38:12.936Z,101694.78
2022-09-21T08:40:42.281Z,101691.66
2022-09-21T08:43:14.306Z,101695.53
2022-09-21T08:45:45.237Z,101695.72
2022-09-21T08:48:22.903Z,101695.88
2022-09-21T08:50:58.168Z,101698.09
2022-09-21T08:53:33.709Z,101696.22
2022-09-21T08:56:02.908Z,101699.00
2022-09-21T08:58:32.726Z,101701.22
2022-09-21T09:01:20.996Z,101706.28
2022-09-21T09:04:05.972Z,101711.50
2022-09-21T09:06:43.400Z,101714.53
2022-09-21T09:09:27.760Z,101706.25
2022-09-21T09:12:11.389Z,101706.56
2022-09-21T09:14:54.424Z,101709.00
2022-09-21T09:17:34.803Z,101707.09
2022-09-21T09:20:06.785Z,101710.53
2022-09-21T09:22:41.669Z,101710.03
2022-09-21T09:25:20.663Z,101709.97
2022-09-21T09:27:51.935Z,101709.06
2022-09-21T09:30:23.096Z,101709.81
2022-09-21T09:32:57.752Z,101707.91
2022-09-21T09:35:31.242Z,101698.97
2022-09-21T09:38:05.246Z,101698.06
2022-09-21T09:40:54.476Z,101702.09
2022-09-21T09:43:32.618Z,101700.16
2022-09-21T09:46:12.930Z,101697.81
2022-09-21T09:49:06.750Z,101704.38
2022-09-21T09:51:40.869Z,101696.75
2022-09-21T09:54:15.197Z,101703.06
2022-09-21T09:56:45.398Z,101699.56
2022-09-21T09:59:24.980Z,101698.53
2022-09-21T10:02:02.065Z,101697.78
2022-09-21T10:04:30.825Z,101697.31
2022-09-21T10:06:58.685Z,101696.94
2022-09-21T10:09:29.333Z,101696.88
2022-09-21T10:12:09.538Z,101693.97
2022-09-21T10:14:38.168Z,101698.91
2022-09-21T10:17:09.496Z,101686.53
2022-09-21T10:19:38.194Z,101686.06
2022-09-21T10:22:07.325Z,101693.06
2022-09-21T10:24:40.629Z,101700.81
2022-09-21T10:27:15.638Z,101692.94
2022-09-21T10:29:44.687Z,101693.22
2022-09-21T10:32:22.639Z,101696.28
2022-09-21T10:35:18.150Z,101688.72
2022-09-21T10:37:49.110Z,101683.38
2022-09-21T10:40:30.760Z,101683.75
2022-09-21T10:43:01.965Z,101682.72
2022-09-21T10:45:31.297Z,101685.03
2022-09-21T10:48:00.911Z,101680.06
2022-09-21T10:50:30.713Z,101679.97
2022-09-21T10:53:02.616Z,101676.78
2022-09-21T10:55:32.833Z,101685.19
2022-09-21T10:58:02.167Z,101682.97
2022-09-21T11:00:39.385Z,101684.06
2022-09-21T11:03:42.937Z,101676.81
2022-09-21T11:06:17.461Z,101682.00
2022-09-21T11:08:50.299Z,101672.03
2022-09-21T11:11:42.807Z,101674.50
2022-09-21T11:14:28.816Z,101684.38
2022-09-21T11:16:59.274Z,101679.75
2022-09-21T11:19:36.283Z,101677.44
2022-09-21T11:22:13.433Z,101672.75
2022-09-21T11:24:49.167Z,101668.88
2022-09-21T11:27:22.703Z,101669.03
2022-09-21T11:30:01.787Z,101669.19
2022-09-21T11:32:59.607Z,101662.63
2022-09-21T11:35:44.706Z,101653.72
2022-09-21T11:38:20.698Z,101664.19
2022-09-21T11:41:15.032Z,101663.09
2022-09-21T11:44:16.221Z,101658.13
2022-09-21T11:46:53.170Z,101667.25
2022-09-21T11:49:37.391Z,101656.53
2022-09-21T11:52:20.350Z,101662.81
2022-09-21T11:55:02.446Z,101652.03
2022-09-21T11:57:36.586Z,101650.69
2022-09-21T12:00:16.321Z,101649.56
2022-09-21T12:03:23.663Z,101649.28
2022-09-21T12:06:07.012Z,101648.97
2022-09-21T12:08:50.137Z,101655.50
2022-09-21T12:11:30.732Z,101639.06
2022-09-21T12:14:07.792Z,101642.63
2022-09-21T12:16:43.523Z,101638.41
2022-09-21T12:19:20.277Z,101637.00
2022-09-21T12:21:53.510Z,101632.63
2022-09-21T12:24:28.544Z,101633.97
2022-09-21T12:27:04.979Z,101639.38
2022-09-21T12:29:47.304Z,101626.44
2022-09-21T12:32:23.129Z,101632.91
2022-09-21T12:34:56.777Z,101626.16
2022-09-21T12:37:32.230Z,101621.03
2022-09-21T12:40:02.280Z,101618.59
2022-09-21T12:42:35.395Z,101618.03
2022-09-21T12:45:09.045Z,101618.50
2022-09-21T12:47:48.891Z,101614.91
2022-09-21T12:50:22.131Z,101605.34
2022-09-21T12:52:53.430Z,101611.63
2022-09-21T12:55:33.509Z,101609.78
2022-09-21T12:58:16.713Z,101601.03
2022-09-21T13:00:53.815Z,101601.38
2022-09-21T13:03:30.063Z,101598.47
2022-09-21T13:06:23.773Z,101594.25
2022-09-21T13:08:54.421Z,101596.34
2022-09-21T13:11:23.443Z,101586.78
2022-09-21T13:14:00.111Z,101586.31
2022-09-21T13:16:31.018Z,101584.56
2022-09-21T13:19:01.812Z,101580.34
2022-09-21T13:21:31.368Z,101579.53
2022-09-21T13:24:03.603Z,101576.97
2022-09-21T13:26:40.085Z,101572.72
2022-09-21T13:29:31.904Z,101574.69
2022-09-21T13:32:01.484Z,101569.69
2022-09-21T13:34:32.801Z,101572.59
2022-09-21T13:37:30.380Z,101572.50
2022-09-21T13:40:42.938Z,101565.91
2022-09-21T13:43:47.180Z,101578.03
2022-09-21T13:46:53.869Z,101569.59
2022-09-21T13:49:25.074Z,101571.94
2022-09-21T13:51:57.391Z,101566.13
2022-09-21T13:54:30.901Z,101564.13
2022-09-21T13:57:09.024Z,101568.69
2022-09-21T13:59:40.729Z,101565.75
2022-09-21T14:02:25.351Z,101557.72
2022-09-21T14:04:53.565Z,101559.91
2022-09-21T14:07:21.630Z,101553.94
2022-09-21T14:09:57.951Z,101559.88
2022-09-21T14:12:29.567Z,101558.72
2022-09-21T14:15:27.372Z,101558.25
2022-09-21T14:18:21.433Z,101545.44
2022-09-21T14:21:14.303Z,101548.69
2022-09-21T14:23:42.165Z,101551.13
2022-09-21T14:26:24.628Z,101546.72
2022-09-21T14:28:54.400Z,101540.09
2022-09-21T14:31:29.296Z,101543.47
2022-09-21T14:34:01.078Z,101536.38
2022-09-21T14:36:41.420Z,101534.63
2022-09-21T14:39:20.377Z,101525.41
2022-09-21T14:41:51.905Z,101528.22
2022-09-21T14:44:22.708Z,101521.09
2022-09-21T14:47:30.506Z,101522.16
2022-09-21T14:50:21.888Z,101520.06
2022-09-21T14:53:12.582Z,101510.03
2022-09-21T14:56:10.323Z,101510.97
2022-09-21T14:58:52.126Z,101508.59
2022-09-21T15:01:27.452Z,101505.00
2022-09-21T15:04:03.634Z,101505.13
2022-09-21T15:06:53.964Z,101493.22
2022-09-21T15:09:54.853Z,101497.06
2022-09-21T15:12:32.347Z,101493.34
2022-09-21T15:15:13.192Z,101495.31
2022-09-21T15:17:57.271Z,101491.34
2022-09-21T15:20:30.615Z,101490.63
2022-09-21T15:23:00.141Z,101485.03
2022-09-21T15:25:32.040Z,101493.44
2022-09-21T15:28:00.955Z,101485.13
2022-09-21T15:30:33.142Z,101488.97
2022-09-21T15:33:03.267Z,101488.72
2022-09-21T15:35:34.555Z,101481.22
2022-09-21T15:38:02.426Z,101491.97
2022-09-21T15:40:33.054Z,101485.78
2022-09-21T15:43:03.908Z,101488.25
2022-09-21T15:45:37.355Z,101489.06
2022-09-21T15:48:09.208Z,101496.31
2022-09-21T15:50:39.509Z,101486.59
2022-09-21T15:53:14.695Z,101495.97
2022-09-21T15:55:48.688Z,101483.59
2022-09-21T15:58:26.683Z,101488.63
2022-09-21T16:00:57.164Z,101487.22
2022-09-21T16:03:27.107Z,101486.09
2022-09-21T16:06:00.679Z,101487.34
2022-09-21T16:08:31.637Z,101484.56
2022-09-21T16:11:19.237Z,101482.94
2022-09-21T16:14:06.037Z,101487.41
2022-09-21T16:16:34.585Z,101482.72
2022-09-21T16:19:02.461Z,101475.38
2022-09-21T16:21:34.589Z,101485.75
2022-09-21T16:24:12.629Z,101486.22
2022-09-21T16:26:41.799Z,101489.03
2022-09-21T16:29:23.571Z,101481.69
2022-09-21T16:31:52.205Z,101484.25
2022-09-21T16:34:22.862Z,101475.06
2022-09-21T16:36:55.156Z,101484.63
2022-09-21T16:39:23.616Z,101483.91
2022-09-21T16:42:00.373Z,101484.38
2022-09-21T16:44:31.517Z,101493.38
2022-09-21T16:47:01.850Z,101494.06
2022-09-21T16:49:32.668Z,101496.63
2022-09-21T16:52:02.548Z,101488.22
2022-09-21T16:54:31.024Z,101481.31
2022-09-21T16:57:00.497Z,101490.66
2022-09-21T16:59:29.598Z,101486.81
2022-09-21T17:01:59.281Z,101493.66
2022-09-21T17:04:30.130Z,101489.78
2022-09-21T17:06:58.380Z,101492.34
2022-09-21T17:09:31.847Z,101491.75
2022-09-21T17:12:01.208Z,101484.66
2022-09-21T17:14:33.053Z,101490.69
2022-09-21T17:17:01.096Z,101481.22
2022-09-21T17:19:29.396Z,101492.44
2022-09-21T17:21:57.103Z,101491.25
2022-09-21T17:24:46.302Z,101486.81
2022-09-21T17:27:18.040Z,101487.25
2022-09-21T17:29:48.265Z,101490.03
2022-09-21T17:32:18.307Z,101485.34
2022-09-21T17:34:46.111Z,101495.13
2022-09-21T17:37:14.320Z,101494.97
2022-09-21T17:39:43.005Z,101485.75
2022-09-21T17:42:19.511Z,101495.03
2022-09-21T17:45:12.448Z,101497.00
2022-09-21T17:47:41.400Z,101496.03
2022-09-21T17:50:24.535Z,101495.66
2022-09-21T17:53:10.868Z,101504.00
2022-09-21T17:55:40.336Z,101513.50
2022-09-21T17:58:37.760Z,101500.78
2022-09-21T18:01:09.341Z,101503.31
2022-09-21T18:03:41.029Z,101503.38
2022-09-21T18:06:10.709Z,101500.53
2022-09-21T18:08:40.070Z,101504.72
2022-09-21T18:11:29.104Z,101501.09
2022-09-21T18:14:08.830Z,101502.75
2022-09-21T18:16:49.413Z,101501.59
2022-09-21T18:19:36.572Z,101505.75
2022-09-21T18:22:14.076Z,101499.19
2022-09-21T18:24:42.875Z,101500.50
2022-09-21T18:27:12.941Z,101505.28
2022-09-21T18:29:41.955Z,101501.81
2022-09-21T18:32:26.851Z,101504.97
2022-09-21T18:35:15.078Z,101504.78
2022-09-21T18:37:53.520Z,101510.56
2022-09-21T18:40:29.678Z,101508.53
2022-09-21T18:43:06.069Z,101512.91
2022-09-21T18:45:39.089Z,101511.91
2022-09-21T18:48:21.440Z,101515.22
2022-09-21T18:50:58.974Z,101517.28
2022-09-21T18:53:34.447Z,101520.63
2022-09-21T18:56:02.804Z,101525.16
2022-09-21T18:58:31.197Z,101518.59
2022-09-21T19:01:00.330Z,101521.28
2022-09-21T19:03:30.766Z,101516.63
2022-09-21T19:06:22.282Z,101531.44
2022-09-21T19:08:59.315Z,101519.53
2022-09-21T19:11:34.774Z,101531.66
2022-09-21T19:14:12.521Z,101527.78
2022-09-21T19:16:55.644Z,101526.56
2022-09-21T19:19:37.477Z,101529.06
2022-09-21T19:22:15.627Z,101529.50
2022-09-21T19:24:55.999Z,101534.44
2022-09-21T19:27:31.117Z,101530.56
2022-09-21T19:30:05.945Z,101532.84
2022-09-21T19:32:39.949Z,101526.28
2022-09-21T19:35:20.570Z,101520.56
2022-09-21T19:37:49.289Z,101536.97
2022-09-21T19:40:18.912Z,101528.59
2022-09-21T19:43:06.756Z,101527.97
2022-09-21T19:45:45.487Z,101523.06
2022-09-21T19:48:16.080Z,101529.25
2022-09-21T19:50:50.957Z,101531.28
2022-09-21T19:53:37.304Z,101523.88
2022-09-21T19:56:28.771Z,101534.78
2022-09-21T19:59:15.356Z,101527.63
2022-09-21T20:01:52.606Z,101527.00
2022-09-21T20:04:28.300Z,101511.88
2022-09-21T20:07:03.326Z,101529.09
2022-09-21T20:09:40.007Z,101522.53
2022-09-21T20:12:17.264Z,101532.56
2022-09-21T20:14:51.730Z,101525.19
2022-09-21T20:17:23.033Z,101527.25
2022-09-21T20:19:57.643Z,101524.00
2022-09-21T20:22:33.821Z,101521.94
2022-09-21T20:25:08.023Z,101531.16
2022-09-21T20:27:40.068Z,101528.94
2022-09-21T20:30:11.428Z,101522.56
2022-09-21T20:32:42.466Z,101525.66
2022-09-21T20:35:16.989Z,101523.41
2022-09-21T20:37:46.980Z,101528.34
2022-09-21T20:40:16.175Z,101521.78
2022-09-21T20:42:44.580Z,101524.84
2022-09-21T20:45:13.996Z,101530.59
2022-09-21T20:47:42.956Z,101524.03
2022-09-21T20:50:13.640Z,101521.56
2022-09-21T20:52:42.839Z,101520.34
2022-09-21T20:55:14.036Z,101522.16
2022-09-21T20:57:42.661Z,101511.31
2022-09-21T21:00:13.410Z,101508.84
2022-09-21T21:02:41.657Z,101513.75
2022-09-21T21:05:11.714Z,101510.50
2022-09-21T21:07:44.291Z,101514.41
2022-09-21T21:10:16.639Z,101506.00
2022-09-21T21:12:44.901Z,101485.84
2022-09-21T21:15:13.687Z,101514.81
2022-09-21T21:17:42.791Z,101509.88
2022-09-21T21:20:12.425Z,101511.28
2022-09-21T21:22:40.496Z,101511.69
2022-09-21T21:25:09.465Z,101512.91
2022-09-21T21:27:38.872Z,101507.78
2022-09-21T21:30:08.623Z,101511.88
2022-09-21T21:32:37.709Z,101511.44
2022-09-21T21:35:07.947Z,101510.84
2022-09-21T21:37:36.669Z,101512.88
2022-09-21T21:40:04.918Z,101513.28
2022-09-21T21:42:32.715Z,101512.06
2022-09-21T21:45:03.564Z,101513.09
2022-09-21T21:47:40.201Z,101508.34
2022-09-21T21:50:10.123Z,101505.91
2022-09-21T21:52:38.393Z,101500.16
2022-09-21T21:55:07.494Z,101502.19
2022-09-21T21:57:35.694Z,101502.81
2022-09-21T22:00:06.493Z,101504.84
2022-09-21T22:02:35.000Z,101480.22
2022-09-21T22:05:02.971Z,101504.63
2022-09-21T22:07:30.870Z,101500.53
2022-09-21T22:09:59.147Z,101500.91
2022-09-21T22:12:27.032Z,101499.28
2022-09-21T22:14:55.250Z,101498.66
2022-09-21T22:17:24.579Z,101498.84
2022-09-21T22:19:54.041Z,101493.91
2022-09-21T22:22:22.094Z,101497.59
2022-09-21T22:24:50.102Z,101492.69
2022-09-21T22:27:18.021Z,101489.41
2022-09-21T22:29:45.994Z,101495.94
2022-09-21T22:32:14.553Z,101485.69
2022-09-21T22:34:43.762Z,101492.03
2022-09-21T22:37:11.561Z,101495.09
2022-09-21T22:39:39.494Z,101490.78
2022-09-21T22:42:07.426Z,101489.38
2022-09-21T22:44:35.808Z,101495.88
2022-09-21T22:47:03.568Z,101492.63
2022-09-21T22:49:31.616Z,101493.00
2022-09-21T22:52:01.308Z,101496.69
2022-09-21T22:54:29.513Z,101491.75
2022-09-21T22:56:57.396Z,101486.84
2022-09-21T22:59:25.958Z,101487.22
2022-09-21T23:01:54.722Z,101485.59
2022-09-21T23:04:23.174Z,101482.94
2022-09-21T23:06:51.992Z,101485.16
2022-09-21T23:09:22.490Z,101486.19
2022-09-21T23:11:54.220Z,101484.72
2022-09-21T23:14:23.379Z,101479.81
2022-09-21T23:16:52.001Z,101490.44
2022-09-21T23:19:20.191Z,101481.19
2022-09-21T23:21:50.718Z,101475.06
2022-09-21T23:24:20.407Z,101481.16
2022-09-21T23:26:51.704Z,101485.47
2022-09-21T23:29:20.156Z,101471.72
2022-09-21T23:31:48.286Z,101476.44
2022-09-21T23:34:17.576Z,101466.19
2022-09-21T23:36:46.866Z,101471.50
2022-09-21T23:39:16.823Z,101463.28
2022-09-21T23:41:45.232Z,101465.34
2022-09-21T23:44:15.015Z,101470.66
2022-09-21T23:46:43.205Z,101458.16
2022-09-21T23:49:11.391Z,101464.47
2022-09-21T23:51:39.743Z,101465.47
2022-09-21T23:54:08.028Z,101459.72
2022-09-21T23:56:37.481Z,101460.75
2022-09-21T23:59:05.519Z,101456.66
